Terminal Aerodrome Forecast
Issued by NWS

Home | Current Version | Previous Version | Graphics & Text | Print | Product List | Glossary On
Versions: 1 2 3 4 5 6 7 8 9 10 11 12 13 14 15 16 17 18 19 20 21 22 23
000
FTUS43 KABR 200800 AAA
TAFPIR
TAF AMD
KPIR 200803Z 2008/2106 12014KT P6SM BKN250 PROB30 2021/2102 -TSRA
      BKN050CB
     FM210200 12010KT P6SM -TSRA BKN050CB
     FM210400 12010KT P6SM SKC=

USA.gov is the U.S. government's official web portal to all federal, state and local government web resources and services.